»·PEaware :: N256Z KSBA-KHAF

N256Z :: KSBA-KHAF

FLIGHT INFORMATION

Flight Status: Arrived
Operator: Privately registered:
United States
More flights under this callsign
Pilot: Gregory A. (9731)
Aircraft: PIPER PA-46-500TP MALIBU MERIDIAN
(P46T)
More flights by this aircraft type
Origin: KSBA Santa Barbara Mun
United States
Destination: KHAF Half Moon Bay
United States
More flights between these airports :: More routes between these airports
Route: +FLOUT5 RZS J501 BSR
File this flight plan on PilotEdge
Remarks:
Altitude:
(Current/Filed)
260ft
Speed:
(Current/Filed)
260kts
Departed: 04-Jul-19 02:26 PM
Arrived: 04-Jul-19 04:00 PM
Distance/Time
Traveled:
226nm/1:34
Distance/Time
To Go:
Arrived

Flight Plot

Page will automatically refresh every two minutes.

Flight plan parsing failed; only flown route is shown


Map Options




Map Legend


Flown Route
Filed Route
Departure Airport
Arrival Airport
Navaid (VOR, NDB)
Fix

Horizontal Profiles

Position Reports

Time Latitude Longitude Heading Altitude Ground
Speed
04-Jul-19 14:24 34.428772 -119.835293 184 14ft 0kts
04-Jul-19 14:25 34.427785 -119.838502 265 14ft 50kts
04-Jul-19 14:26 34.416811 -119.856766 172 1102ft 102kts
04-Jul-19 14:27 34.381029 -119.870687 208 2253ft 158kts
04-Jul-19 14:28 34.343609 -119.895421 209 3057ft 153kts
04-Jul-19 14:29 34.308747 -119.918769 211 4486ft 134kts
04-Jul-19 14:30 34.274773 -119.941676 215 6107ft 149kts
04-Jul-19 14:31 34.254533 -119.915681 40 7734ft 161kts
04-Jul-19 14:32 34.296333 -119.896953 13 9365ft 165kts
04-Jul-19 14:33 34.341593 -119.881156 13 10965ft 172kts
04-Jul-19 14:34 34.388034 -119.865639 12 12563ft 174kts
04-Jul-19 14:35 34.433847 -119.847155 37 14156ft 175kts
04-Jul-19 14:36 34.466246 -119.804188 32 15757ft 169kts
04-Jul-19 14:37 34.507117 -119.775570 356 17362ft 169kts
04-Jul-19 14:38 34.542631 -119.806589 312 18980ft 159kts
04-Jul-19 14:39 34.575123 -119.842444 312 20570ft 155kts
04-Jul-19 14:40 34.606468 -119.876684 311 22148ft 146kts
04-Jul-19 14:41 34.634066 -119.906756 308 23677ft 115kts
04-Jul-19 14:42 34.655331 -119.930190 307 24573ft 111kts
04-Jul-19 14:43 34.685095 -119.962935 312 24349ft 179kts
04-Jul-19 14:44 34.725803 -120.007294 313 24004ft 202kts
04-Jul-19 14:45 34.767488 -120.052809 313 24004ft 200kts
04-Jul-19 14:46 34.808936 -120.098293 313 24016ft 199kts
04-Jul-19 14:47 34.842304 -120.134963 312 24021ft 199kts
04-Jul-19 14:48 34.883137 -120.179921 312 24027ft 198kts
04-Jul-19 14:49 34.924222 -120.225218 312 24027ft 198kts
04-Jul-19 14:50 34.965125 -120.270375 313 24030ft 198kts
04-Jul-19 14:51 35.005971 -120.315530 313 24032ft 198kts
04-Jul-19 14:52 35.046899 -120.360840 312 24032ft 198kts
04-Jul-19 14:53 35.087618 -120.405978 312 24031ft 197kts
04-Jul-19 14:54 35.128230 -120.451067 312 24030ft 197kts
04-Jul-19 14:55 35.168900 -120.496284 312 24032ft 197kts
04-Jul-19 14:56 35.209415 -120.541390 312 24030ft 197kts
04-Jul-19 14:57 35.249890 -120.586515 312 24028ft 197kts
04-Jul-19 14:58 35.290469 -120.631822 312 24027ft 197kts
04-Jul-19 14:59 35.330875 -120.676997 312 24024ft 197kts
04-Jul-19 15:00 35.371269 -120.722224 312 24018ft 197kts
04-Jul-19 15:02 35.411784 -120.767648 312 24009ft 197kts
04-Jul-19 15:03 35.452273 -120.813109 313 24001ft 197kts
04-Jul-19 15:04 35.492598 -120.858451 313 23994ft 196kts
04-Jul-19 15:05 35.532861 -120.903788 313 23990ft 196kts
04-Jul-19 15:06 35.573143 -120.949206 312 23989ft 195kts
04-Jul-19 15:07 35.609273 -120.990000 312 23988ft 195kts
04-Jul-19 15:08 35.650234 -121.036365 313 23586ft 206kts
04-Jul-19 15:09 35.692997 -121.084794 313 23089ft 210kts
04-Jul-19 15:10 35.736161 -121.133746 313 22591ft 212kts
04-Jul-19 15:11 35.779595 -121.183078 313 22092ft 213kts
04-Jul-19 15:12 35.823262 -121.232756 314 21592ft 213kts
04-Jul-19 15:13 35.866964 -121.282538 314 21094ft 214kts
04-Jul-19 15:14 35.910742 -121.332500 314 20595ft 215kts
04-Jul-19 15:15 35.954747 -121.382783 315 20096ft 215kts
04-Jul-19 15:16 35.997623 -121.431814 315 20015ft 204kts
04-Jul-19 15:17 36.038683 -121.478840 315 20026ft 199kts
04-Jul-19 15:18 36.080373 -121.526711 315 19458ft 212kts
04-Jul-19 15:18 36.117051 -121.568842 315 18794ft 218kts
04-Jul-19 15:20 36.169467 -121.628447 320 17870ft 218kts
04-Jul-19 15:21 36.220352 -121.666496 329 17068ft 212kts
04-Jul-19 15:22 36.267442 -121.697198 330 16339ft 211kts
04-Jul-19 15:23 36.319555 -121.730481 330 15541ft 211kts
04-Jul-19 15:23 36.363403 -121.758386 331 14888ft 212kts
04-Jul-19 15:25 36.423142 -121.796347 331 13938ft 201kts
04-Jul-19 15:25 36.463726 -121.822168 331 13267ft 193kts
04-Jul-19 15:26 36.511365 -121.852519 331 12465ft 190kts
04-Jul-19 15:28 36.566352 -121.887637 331 11533ft 190kts
04-Jul-19 15:28 36.605524 -121.912691 331 10830ft 191kts
04-Jul-19 15:29 36.651184 -121.941893 332 9623ft 180kts
04-Jul-19 15:30 36.697017 -121.965492 341 8464ft 176kts
04-Jul-19 15:31 36.741738 -121.984380 341 7983ft 159kts
04-Jul-19 15:32 36.784203 -122.002680 341 7346ft 162kts
04-Jul-19 15:33 36.826733 -122.021136 341 6705ft 161kts
04-Jul-19 15:34 36.868331 -122.039181 341 6059ft 153kts
04-Jul-19 15:35 36.907838 -122.056343 341 5415ft 148kts
04-Jul-19 15:36 36.940148 -122.070397 341 4876ft 145kts
04-Jul-19 15:37 36.977707 -122.086739 340 4459ft 133kts
04-Jul-19 15:38 37.010166 -122.100807 340 4456ft 116kts
04-Jul-19 15:39 37.039410 -122.113527 340 4456ft 108kts
04-Jul-19 15:40 37.069503 -122.126729 340 4467ft 128kts
04-Jul-19 15:41 37.106764 -122.143158 339 4457ft 152kts
04-Jul-19 15:42 37.147516 -122.161009 339 4452ft 158kts
04-Jul-19 15:43 37.184265 -122.176834 340 4480ft 122kts
04-Jul-19 15:44 37.208324 -122.208099 307 4138ft 144kts
04-Jul-19 15:45 37.233587 -122.249645 308 3787ft 143kts
04-Jul-19 15:46 37.256895 -122.287680 308 3818ft 132kts
04-Jul-19 15:47 37.280362 -122.326062 308 3391ft 146kts
04-Jul-19 15:48 37.303990 -122.364766 308 3326ft 136kts
04-Jul-19 15:49 37.326921 -122.402132 308 3324ft 135kts
04-Jul-19 15:50 37.360464 -122.406358 358 3322ft 126kts
04-Jul-19 15:51 37.391089 -122.421424 326 3328ft 120kts
04-Jul-19 15:52 37.421720 -122.445898 329 2807ft 140kts
04-Jul-19 15:53 37.458033 -122.465322 339 2258ft 137kts
04-Jul-19 15:54 37.495277 -122.481485 339 1529ft 148kts
04-Jul-19 15:55 37.519730 -122.502646 272 440ft 80kts
04-Jul-19 15:56 37.500123 -122.511400 141 329ft 94kts
04-Jul-19 15:57 37.483956 -122.486675 63 283ft 111kts
04-Jul-19 15:58 37.507661 -122.494426 316 102ft 93kts
04-Jul-19 15:59 37.516007 -122.504153 315 71ft 0kts
04-Jul-19 16:00 37.516010 -122.504156 315 71ft 0kts
04-Jul-19 16:01 37.517563 -122.505984 317 71ft 17kts
04-Jul-19 16:02 37.519547 -122.505273 87 71ft 0kts

Navigation Log

Ident Type
Flight plan parsing failed, navigation log unavailable